Time;durP1;ratioP1;P1;durP2;ratioP2;P2;SDS_P1;SDS_P2;PMS_P1;PMS_P2;Temp;Humidity;BMP_temperature;BMP_pressure;BME280_temperature;BME280_humidity;BME280_pressure;Samples;Min_cycle;Max_cycle;Signal;HPM_P1;HPM_P2
2022/07/25 00:01:29;;;;;;;10.40;6.53;;;;;;;22.95;64.23;100872.56;5283375;28;20507;-74
2022/07/25 00:04:00;;;;;;;6.63;5.93;;;;;;;22.87;64.85;100867.72;5282993;28;20079;-74
2022/07/25 00:06:32;;;;;;;7.40;6.10;;;;;;;22.81;65.09;100865.44;5283102;28;20078;-74
2022/07/25 00:09:03;;;;;;;9.33;6.30;;;;;;;22.79;64.48;100863.84;5282700;28;20104;-74
2022/07/25 00:11:35;;;;;;;8.10;6.68;;;;;;;22.73;64.90;100854.44;5283447;28;20035;-74
2022/07/25 00:14:06;;;;;;;10.40;6.82;;;;;;;22.69;65.21;100852.94;5283003;28;20028;-73
2022/07/25 00:16:38;;;;;;;7.70;6.50;;;;;;;22.55;65.57;100851.97;5264747;28;20052;-74
2022/07/25 00:19:10;;;;;;;6.43;5.82;;;;;;;22.65;64.61;100849.59;5283282;28;20481;-73
2022/07/25 00:21:41;;;;;;;9.70;6.33;;;;;;;22.54;64.97;100842.31;5287888;28;20028;-73
2022/07/25 00:24:13;;;;;;;6.67;5.67;;;;;;;22.66;64.71;100837.19;5302649;28;20104;-72
2022/07/25 00:26:44;;;;;;;8.37;6.30;;;;;;;22.48;64.68;100840.03;5286981;28;20055;-73
2022/07/25 00:29:15;;;;;;;6.77;6.07;;;;;;;22.54;64.83;100841.44;5283674;28;20025;-73
2022/07/25 00:31:47;;;;;;;8.67;6.67;;;;;;;22.44;65.03;100825.22;5282999;28;20036;-73
2022/07/25 00:34:18;;;;;;;7.13;6.27;;;;;;;22.49;64.75;100833.78;5282755;28;20036;-74
2022/07/25 00:36:50;;;;;;;7.82;6.18;;;;;;;22.38;65.28;100828.28;5282573;28;20040;-73
2022/07/25 00:39:21;;;;;;;8.50;6.40;;;;;;;22.40;65.11;100823.72;5282653;28;20024;-74
2022/07/25 00:41:53;;;;;;;8.17;6.10;;;;;;;22.34;65.33;100821.44;5283102;28;20029;-73
2022/07/25 00:44:27;;;;;;;6.70;6.10;;;;;;;22.47;64.80;100817.06;5282620;28;20124;-73
2022/07/25 00:46:58;;;;;;;9.40;6.28;;;;;;;22.33;65.00;100819.72;5282592;28;20028;-74
2022/07/25 00:49:30;;;;;;;7.63;6.10;;;;;;;22.44;65.01;100811.09;5282414;28;20040;-75
2022/07/25 00:52:01;;;;;;;11.17;6.03;;;;;;;22.39;63.52;100809.59;5282978;28;20024;-74
2022/07/25 00:54:33;;;;;;;7.45;6.60;;;;;;;22.48;62.99;100807.31;5282211;28;20031;-75
2022/07/25 00:57:04;;;;;;;10.03;6.93;;;;;;;22.39;63.46;100809.59;5283041;28;20051;-74
2022/07/25 00:59:36;;;;;;;8.50;6.70;;;;;;;22.32;62.95;100808.25;5283203;28;20487;-74
2022/07/25 01:02:07;;;;;;;8.70;6.17;;;;;;;22.21;62.85;100805.38;5289424;28;20123;-75
2022/07/25 01:04:39;;;;;;;7.70;5.80;;;;;;;22.43;62.54;100796.13;5289930;28;20028;-74
2022/07/25 01:07:10;;;;;;;7.45;6.30;;;;;;;22.40;62.53;100794.53;5277834;28;20123;-74
2022/07/25 01:09:42;;;;;;;8.70;6.03;;;;;;;22.42;62.43;100800.56;5292085;28;20395;-74
2022/07/25 01:12:13;;;;;;;7.63;5.73;;;;;;;22.37;62.54;100784.94;5288021;28;20039;-74
2022/07/25 01:14:44;;;;;;;6.40;5.40;;;;;;;22.36;62.06;100782.38;5286263;28;20080;-74
2022/07/25 01:17:16;;;;;;;7.67;5.80;;;;;;;22.38;62.05;100780.50;5286070;28;20036;-75
2022/07/25 01:19:50;;;;;;;7.27;6.20;;;;;;;22.54;62.38;100777.69;5267519;28;20028;-75
2022/07/25 01:22:21;;;;;;;6.72;6.03;;;;;;;22.42;62.08;100774.03;5286065;28;20032;-74
2022/07/25 01:24:53;;;;;;;9.60;6.33;;;;;;;22.48;61.95;100773.63;5285730;28;20426;-74
2022/07/25 01:27:24;;;;;;;9.48;5.85;;;;;;;22.44;60.78;100773.94;5267780;28;20471;-75
2022/07/25 01:29:55;;;;;;;9.20;6.73;;;;;;;22.43;60.67;100770.44;5285611;28;20043;-74
2022/07/25 01:32:27;;;;;;;10.00;6.07;;;;;;;22.30;60.96;100767.69;5285550;28;20391;-74
2022/07/25 01:34:58;;;;;;;8.93;6.57;;;;;;;22.40;61.67;100760.00;5285789;28;20111;-74
2022/07/25 01:37:29;;;;;;;7.00;5.90;;;;;;;22.22;61.14;100760.16;5285310;28;20047;-74
2022/07/25 01:40:02;;;;;;;9.20;6.23;;;;;;;22.28;60.53;100764.25;5285546;28;20326;-74
2022/07/25 01:42:34;;;;;;;6.47;5.75;;;;;;;22.31;61.21;100755.25;5285618;28;20364;-74
2022/07/25 01:45:06;;;;;;;7.40;5.93;;;;;;;22.36;59.88;100755.81;5285478;28;20045;-75
2022/07/25 01:47:37;;;;;;;7.82;6.75;;;;;;;22.37;60.31;100750.41;5285236;28;20043;-74
2022/07/25 01:50:09;;;;;;;7.53;6.50;;;;;;;22.35;60.26;100741.69;5285435;28;20033;-75
2022/07/25 01:52:41;;;;;;;11.80;5.70;;;;;;;22.33;60.43;100746.25;5285260;28;20085;-74
2022/07/25 01:55:12;;;;;;;7.95;5.45;;;;;;;22.34;60.21;100736.47;5284979;28;20089;-74
2022/07/25 01:57:44;;;;;;;9.77;6.33;;;;;;;22.36;59.92;100734.56;5285206;28;20451;-73
2022/07/25 02:00:16;;;;;;;6.23;5.27;;;;;;;22.35;59.69;100733.72;5285215;28;20063;-74
2022/07/25 02:02:47;;;;;;;;;;;;;;;22.37;59.33;100734.47;5285454;28;20055;-74
2022/07/25 02:05:19;;;;;;;7.50;6.47;;;;;;;22.43;59.48;100732.38;5284715;28;19916;-74
2022/07/25 02:07:50;;;;;;;7.77;5.70;;;;;;;22.35;59.64;100722.25;5284742;28;20487;-74
2022/07/25 02:10:22;;;;;;;7.70;6.27;;;;;;;22.29;59.48;100723.47;5284954;28;20067;-74
2022/07/25 02:12:53;;;;;;;7.53;6.10;;;;;;;22.41;59.93;100721.84;5284815;28;20029;-74
2022/07/25 02:15:24;;;;;;;7.47;5.93;;;;;;;22.36;58.77;100724.81;5284100;28;20027;-74
2022/07/25 02:17:56;;;;;;;9.83;6.10;;;;;;;22.28;59.46;100718.22;5285036;28;20056;-75
2022/07/25 02:20:27;;;;;;;9.10;6.23;;;;;;;22.36;59.47;100718.63;5266511;28;20033;-74
2022/07/25 02:22:58;;;;;;;7.80;5.80;;;;;;;22.37;58.71;100723.00;5267394;28;20029;-75
2022/07/25 02:25:30;;;;;;;7.90;6.40;;;;;;;22.30;59.37;100724.31;5285165;28;20487;-75
2022/07/25 02:28:02;;;;;;;11.80;6.18;;;;;;;22.25;59.72;100721.94;5284580;28;20060;-75
2022/07/25 02:30:34;;;;;;;6.30;5.70;;;;;;;22.32;58.83;100722.44;5284685;28;20064;-75
2022/07/25 02:33:05;;;;;;;8.90;5.82;;;;;;;22.31;58.58;100718.06;5286174;28;20055;-75
2022/07/25 02:35:37;;;;;;;8.47;6.20;;;;;;;22.28;58.63;100705.81;5301790;28;20043;-73
2022/07/25 02:38:08;;;;;;;8.07;5.93;;;;;;;22.19;59.03;100703.75;5296717;28;20029;-75
2022/07/25 02:40:39;;;;;;;8.67;5.70;;;;;;;22.20;58.76;100706.31;5286295;28;20107;-75
2022/07/25 02:43:11;;;;;;;9.83;6.07;;;;;;;22.23;58.66;100702.59;5284870;28;20029;-75
2022/07/25 02:45:42;;;;;;;9.27;6.93;;;;;;;22.14;59.22;100698.72;5284144;28;20123;-74
2022/07/25 02:48:13;;;;;;;9.97;5.70;;;;;;;22.01;59.62;100689.84;5283756;28;20086;-75
2022/07/25 02:50:45;;;;;;;7.47;5.67;;;;;;;22.11;58.97;100690.94;5283960;28;20036;-75
2022/07/25 02:53:16;;;;;;;9.20;5.60;;;;;;;22.03;59.24;100682.63;5284156;28;20135;-75
2022/07/25 02:55:47;;;;;;;7.20;5.73;;;;;;;21.96;59.62;100682.16;5283923;28;20037;-75
2022/07/25 02:58:19;;;;;;;7.97;5.50;;;;;;;21.95;59.35;100684.91;5283972;28;20039;-76
2022/07/25 03:00:50;;;;;;;8.53;5.97;;;;;;;21.89;59.74;100690.59;5283801;28;20028;-74
2022/07/25 03:03:22;;;;;;;6.53;5.67;;;;;;;21.95;59.80;100688.41;5283737;28;20028;-75
2022/07/25 03:05:53;;;;;;;6.90;5.77;;;;;;;21.89;59.98;100677.31;5265992;28;20028;-74
2022/07/25 03:08:24;;;;;;;6.67;5.90;;;;;;;21.91;59.84;100678.06;5284336;28;20039;-73
2022/07/25 03:10:56;;;;;;;9.13;5.30;;;;;;;21.88;59.06;100668.50;5283922;28;20028;-73
2022/07/25 03:13:27;;;;;;;6.63;5.95;;;;;;;21.85;59.39;100664.22;5283946;28;20494;-74
2022/07/25 03:15:59;;;;;;;8.87;5.57;;;;;;;21.89;58.50;100658.75;5284542;28;20082;-74
2022/07/25 03:18:30;;;;;;;8.37;5.97;;;;;;;21.90;59.04;100663.94;5286041;28;20029;-74
2022/07/25 03:21:01;;;;;;;9.27;5.20;;;;;;;21.92;58.62;100662.03;5289996;28;20104;-74
2022/07/25 03:23:33;;;;;;;9.87;5.90;;;;;;;21.89;59.33;100661.41;5286244;28;20036;-74
2022/07/25 03:26:05;;;;;;;6.60;5.90;;;;;;;21.91;58.69;100656.84;5284190;28;20033;-74
2022/07/25 03:28:36;;;;;;;7.63;6.83;;;;;;;21.87;59.33;100661.50;5283721;28;20029;-75
2022/07/25 03:31:08;;;;;;;8.30;6.00;;;;;;;21.87;58.82;100656.19;5283337;28;20269;-74
2022/07/25 03:33:39;;;;;;;8.40;6.83;;;;;;;21.85;58.66;100653.63;5265349;28;20040;-74
2022/07/25 03:36:10;;;;;;;7.13;6.27;;;;;;;21.91;58.66;100656.84;5283289;28;20525;-74
2022/07/25 03:38:42;;;;;;;7.40;6.20;;;;;;;21.94;58.22;100659.28;5283362;28;20047;-75
2022/07/25 03:41:13;;;;;;;6.70;6.00;;;;;;;21.87;58.68;100658.00;5283068;28;20111;-75
2022/07/25 03:43:44;;;;;;;6.53;5.70;;;;;;;21.89;58.50;100662.22;5283293;28;20036;-75
2022/07/25 03:46:16;;;;;;;12.90;6.20;;;;;;;21.89;58.54;100658.75;5283660;28;20049;-75
2022/07/25 03:48:47;;;;;;;7.60;5.57;;;;;;;21.88;58.55;100659.69;5282887;28;20044;-74
2022/07/25 03:51:18;;;;;;;8.20;6.00;;;;;;;21.85;58.58;100652.78;5283194;28;20040;-75
2022/07/25 03:54:02;;;;;;;8.50;5.63;;;;;;;21.87;58.84;100658.84;5282810;28;20048;-75
2022/07/25 03:56:42;;;;;;;9.48;6.22;;;;;;;21.82;58.46;100660.94;5283223;28;20132;-74
2022/07/25 03:59:17;;;;;;;6.78;5.53;;;;;;;21.85;58.86;100656.28;5282868;28;20040;-74
2022/07/25 04:01:49;;;;;;;8.13;6.32;;;;;;;21.79;58.98;100646.03;5283764;28;20028;-74
2022/07/25 04:04:21;;;;;;;11.02;6.40;;;;;;;21.78;59.05;100639.03;5294733;28;20031;-74
2022/07/25 04:06:52;;;;;;;8.47;5.87;;;;;;;21.80;58.56;100649.53;5292917;28;20448;-74
2022/07/25 04:09:23;;;;;;;7.60;5.97;;;;;;;21.76;59.68;100640.91;5285915;28;20112;-74
2022/07/25 04:11:55;;;;;;;8.33;6.20;;;;;;;21.73;60.02;100641.09;5283228;28;20048;-74
2022/07/25 04:14:26;;;;;;;9.63;6.73;;;;;;;21.73;58.86;100645.56;5282492;28;20028;-74
2022/07/25 04:16:57;;;;;;;10.53;6.67;;;;;;;21.64;59.37;100642.53;5265001;28;20036;-75
2022/07/25 04:19:29;;;;;;;9.07;6.63;;;;;;;21.64;61.08;100641.69;5282780;28;20450;-74
2022/07/25 04:22:00;;;;;;;11.13;6.60;;;;;;;21.65;59.46;100638.94;5265397;28;20068;-73
2022/07/25 04:24:32;;;;;;;11.60;7.23;;;;;;;21.57;59.51;100640.34;5282808;28;20033;-74
2022/07/25 04:27:03;;;;;;;7.47;6.47;;;;;;;21.62;60.07;100636.47;5282377;28;20024;-74
2022/07/25 04:29:34;;;;;;;7.77;6.60;;;;;;;21.58;60.32;100637.59;5283055;28;20052;-75
2022/07/25 04:32:06;;;;;;;9.43;7.13;;;;;;;21.54;60.18;100637.88;5282896;28;20070;-74
2022/07/25 04:34:37;;;;;;;9.37;6.20;;;;;;;21.53;60.15;100638.84;5264475;28;20048;-74
2022/07/25 04:37:09;;;;;;;9.70;6.30;;;;;;;21.54;60.45;100646.72;5283976;28;20040;-74
2022/07/25 04:39:40;;;;;;;8.67;6.30;;;;;;;21.55;60.46;100639.59;5269367;28;20197;-75
2022/07/25 04:42:11;;;;;;;9.43;6.70;;;;;;;21.48;60.26;100658.53;5286855;28;20400;-74
2022/07/25 04:44:43;;;;;;;8.47;6.40;;;;;;;21.47;60.77;100648.81;5286519;28;20067;-75
2022/07/25 04:47:14;;;;;;;12.30;6.17;;;;;;;21.54;60.30;100644.06;5286710;28;20036;-75
2022/07/25 04:49:46;;;;;;;8.07;6.60;;;;;;;21.53;61.55;100644.16;5285919;28;20040;-75
2022/07/25 04:52:17;;;;;;;7.83;6.23;;;;;;;21.54;60.53;100636.09;5287113;28;20043;-75
2022/07/25 04:54:48;;;;;;;9.13;6.17;;;;;;;21.54;60.26;100635.22;5286640;28;20467;-75
2022/07/25 04:57:20;;;;;;;9.63;6.33;;;;;;;21.59;61.82;100627.84;5286241;28;20058;-75
2022/07/25 04:59:51;;;;;;;7.53;5.77;;;;;;;21.56;60.46;100634.19;5286310;28;20032;-75
2022/07/25 05:02:23;;;;;;;8.57;6.70;;;;;;;21.56;60.67;100639.50;5286336;28;20032;-74
2022/07/25 05:04:54;;;;;;;7.47;6.40;;;;;;;21.57;60.91;100641.19;5286416;28;20037;-75
2022/07/25 05:07:26;;;;;;;10.03;6.20;;;;;;;21.64;61.73;100644.34;5286374;28;20028;-74
2022/07/25 05:09:57;;;;;;;8.63;6.20;;;;;;;21.71;60.36;100642.16;5286171;28;20483;-74
2022/07/25 05:12:29;;;;;;;8.40;6.50;;;;;;;21.78;60.79;100648.78;5285882;28;20410;-74
2022/07/25 05:15:00;;;;;;;11.03;6.50;;;;;;;21.80;60.52;100636.25;5285916;28;20448;-73
2022/07/25 05:17:32;;;;;;;7.85;5.80;;;;;;;21.82;61.42;100643.19;5285573;28;20429;-74
2022/07/25 05:20:03;;;;;;;10.07;5.87;;;;;;;21.85;60.26;100652.78;5285686;28;20060;-74
2022/07/25 05:22:35;;;;;;;7.72;5.78;;;;;;;21.88;60.32;100649.06;5285659;28;20064;-73
2022/07/25 05:25:10;;;;;;;7.87;5.70;;;;;;;21.90;60.29;100645.38;5285726;28;20037;-74
2022/07/25 05:27:42;;;;;;;10.65;6.93;;;;;;;21.96;62.09;100637.03;5286536;28;20028;-74
2022/07/25 05:30:14;;;;;;;8.90;6.50;;;;;;;22.01;60.22;100644.72;5286076;28;20558;-73
2022/07/25 05:32:45;;;;;;;8.53;6.33;;;;;;;22.03;59.93;100651.59;5269938;28;20081;-73
2022/07/25 05:35:16;;;;;;;7.40;6.23;;;;;;;22.06;60.29;100647.03;5288633;28;20488;-73
2022/07/25 05:37:48;;;;;;;12.50;7.37;;;;;;;22.04;60.16;100649.78;5286880;28;20035;-74
2022/07/25 05:40:19;;;;;;;11.90;6.70;;;;;;;22.11;60.99;100650.28;5285853;28;20029;-74
2022/07/25 05:42:51;;;;;;;15.23;6.90;;;;;;;22.03;61.19;100656.91;5285527;28;20440;-73
2022/07/25 05:45:22;;;;;;;9.53;7.30;;;;;;;22.07;61.26;100649.59;5285340;28;20048;-74
2022/07/25 05:47:53;;;;;;;11.60;7.43;;;;;;;22.02;60.99;100654.34;5266848;28;20036;-74
2022/07/25 05:50:25;;;;;;;9.77;6.60;;;;;;;22.07;62.65;100657.56;5266701;28;20036;-74
2022/07/25 05:52:56;;;;;;;12.50;7.33;;;;;;;21.94;61.05;100648.69;5284705;28;20033;-74
2022/07/25 05:55:28;;;;;;;7.97;7.03;;;;;;;21.94;61.14;100656.66;5285460;28;20273;-74
2022/07/25 05:57:59;;;;;;;10.17;6.70;;;;;;;21.96;61.19;100652.09;5284629;28;20044;-74
2022/07/25 06:00:30;;;;;;;12.20;7.13;;;;;;;22.08;62.41;100666.41;5284808;28;20031;-74
2022/07/25 06:03:02;;;;;;;9.57;6.83;;;;;;;21.98;61.36;100664.31;5267102;28;20093;-74
2022/07/25 06:05:33;;;;;;;8.20;6.23;;;;;;;22.00;61.48;100672.19;5285135;28;20090;-74
2022/07/25 06:08:05;;;;;;;12.93;7.23;;;;;;;22.12;60.93;100681.16;5284786;28;20294;-74
2022/07/25 06:10:36;;;;;;;9.33;6.40;;;;;;;22.05;61.65;100672.75;5284747;28;20037;-74
2022/07/25 06:13:07;;;;;;;10.30;7.20;;;;;;;21.98;61.79;100676.75;5284954;28;20043;-74
2022/07/25 06:15:39;;;;;;;14.27;6.87;;;;;;;21.70;61.27;100675.78;5287390;28;20029;-74
2022/07/25 06:18:10;;;;;;;11.27;6.50;;;;;;;21.68;62.13;100675.03;5272566;28;20040;-74
2022/07/25 06:20:42;;;;;;;9.40;5.83;;;;;;;21.66;62.34;100674.28;5285906;28;20032;-75
2022/07/25 06:23:14;;;;;;;9.83;6.00;;;;;;;21.66;61.33;100672.47;5266980;28;20028;-74
2022/07/25 06:25:45;;;;;;;8.38;6.30;;;;;;;21.53;61.74;100682.13;5284160;28;20036;-75
2022/07/25 06:28:17;;;;;;;8.27;6.32;;;;;;;21.63;61.75;100677.13;5283917;28;20302;-74
2022/07/25 06:30:49;;;;;;;9.77;6.20;;;;;;;21.76;61.52;100683.38;5284075;28;20033;-74
2022/07/25 06:33:20;;;;;;;6.97;6.03;;;;;;;21.83;61.48;100681.19;5284113;28;20032;-73
2022/07/25 06:35:51;;;;;;;6.90;6.17;;;;;;;21.77;61.34;100687.75;5283644;28;20105;-73
2022/07/25 06:38:23;;;;;;;8.03;6.20;;;;;;;21.63;62.25;100688.56;5284005;28;20426;-75
2022/07/25 06:40:54;;;;;;;6.90;5.87;;;;;;;21.81;62.71;100678.63;5284143;28;20485;-73
2022/07/25 06:43:26;;;;;;;8.53;6.03;;;;;;;21.78;61.63;100692.09;5283743;28;20039;-74
2022/07/25 06:45:57;;;;;;;7.00;5.47;;;;;;;21.97;62.45;100683.00;5283838;28;20432;-74
2022/07/25 06:48:29;;;;;;;9.67;5.70;;;;;;;21.92;61.51;100687.75;5266494;28;20028;-74
2022/07/25 06:51:00;;;;;;;9.55;5.63;;;;;;;22.02;60.99;100681.78;5283445;28;20074;-74
2022/07/25 06:53:32;;;;;;;8.10;5.73;;;;;;;22.14;60.99;100689.91;5283512;28;20442;-73
2022/07/25 06:56:03;;;;;;;10.03;5.97;;;;;;;22.15;61.24;100684.50;5283819;28;20439;-73
2022/07/25 06:58:35;;;;;;;11.65;5.90;;;;;;;22.10;61.37;100675.97;5266308;28;20033;-73
2022/07/25 07:01:06;;;;;;;8.00;5.47;;;;;;;22.06;61.33;100685.09;5285622;28;20059;-74
2022/07/25 07:03:38;;;;;;;8.80;5.03;;;;;;;22.09;61.74;100684.03;5286576;28;20094;-74
2022/07/25 07:06:10;;;;;;;7.43;5.28;;;;;;;22.11;61.75;100680.34;5265869;28;20040;-73
2022/07/25 07:08:41;;;;;;;9.07;5.97;;;;;;;22.24;62.16;100682.22;5283671;28;20028;-74
2022/07/25 07:11:14;;;;;;;8.20;5.37;;;;;;;22.41;62.00;100687.31;5283126;28;20063;-74
2022/07/25 07:13:45;;;;;;;8.32;4.82;;;;;;;22.34;61.88;100680.72;5283871;28;20119;-75
2022/07/25 07:16:17;;;;;;;10.70;4.97;;;;;;;22.47;61.42;100681.63;5283510;28;20119;-74
2022/07/25 07:18:48;;;;;;;7.03;4.33;;;;;;;22.50;61.79;100688.53;5283322;28;20024;-74
2022/07/25 07:21:19;;;;;;;8.93;5.37;;;;;;;22.55;61.22;100692.59;5283461;28;20028;-75
2022/07/25 07:23:51;;;;;;;8.75;4.70;;;;;;;22.63;61.45;100680.63;5283141;28;20418;-74
2022/07/25 07:26:23;;;;;;;7.87;4.27;;;;;;;22.74;60.87;100672.81;5283135;28;20020;-74
2022/07/25 07:28:54;;;;;;;6.53;4.07;;;;;;;22.52;61.43;100683.97;5283111;28;20271;-76
2022/07/25 07:31:26;;;;;;;9.33;4.33;;;;;;;22.58;62.07;100684.44;5265257;28;20048;-75
2022/07/25 07:34:00;;;;;;;10.53;4.47;;;;;;;22.39;62.19;100683.91;5283158;28;20037;-75
2022/07/25 07:36:31;;;;;;;9.30;4.15;;;;;;;22.34;63.31;100693.97;5283088;28;20352;-73
2022/07/25 07:39:03;;;;;;;8.63;4.73;;;;;;;22.39;63.27;100695.41;5283360;28;20037;-75
2022/07/25 07:41:34;;;;;;;8.07;3.50;;;;;;;22.29;63.96;100693.41;5282727;28;20137;-75
2022/07/25 07:44:05;;;;;;;11.83;3.60;;;;;;;22.20;64.48;100690.38;5264883;28;20435;-74
2022/07/25 07:46:37;;;;;;;5.23;3.20;;;;;;;22.28;64.20;100700.53;5283600;28;20043;-74
2022/07/25 07:49:08;;;;;;;10.40;3.80;;;;;;;22.36;64.75;100697.38;5283105;28;20039;-74
2022/07/25 07:51:40;;;;;;;8.00;3.10;;;;;;;22.43;64.36;100685.44;5282640;28;20032;-74
2022/07/25 07:57:01;;;;;;;7.80;3.13;;;;;;;23.06;62.89;100704.38;5283338;28;20079;-75
2022/07/25 07:59:32;;;;;;;9.90;2.93;;;;;;;23.57;63.97;100691.19;5268682;28;20056;-75
2022/07/25 08:02:04;;;;;;;6.03;2.42;;;;;;;23.95;61.12;100700.16;5282925;28;20028;-74
2022/07/25 08:04:35;;;;;;;7.00;2.57;;;;;;;24.10;61.15;100695.53;5282730;28;20040;-74
2022/07/25 08:07:06;;;;;;;7.90;2.27;;;;;;;23.97;61.24;100691.13;5264316;28;20082;-74
2022/07/25 08:09:38;;;;;;;8.37;2.70;;;;;;;23.79;60.72;100700.34;5282447;28;20071;-74
2022/07/25 08:12:09;;;;;;;5.93;2.23;;;;;;;23.65;61.34;100701.28;5283727;28;20028;-75
2022/07/25 08:14:40;;;;;;;7.73;2.60;;;;;;;23.82;61.14;100706.28;5286633;28;20123;-76
2022/07/25 08:17:13;;;;;;;8.00;2.47;;;;;;;23.92;60.86;100693.22;5287174;28;20048;-75
2022/07/25 08:19:44;;;;;;;4.88;2.22;;;;;;;23.60;61.79;100701.63;5268432;28;20496;-75
2022/07/25 08:22:16;;;;;;;12.53;2.50;;;;;;;23.46;62.71;100710.56;5286605;28;20079;-74
2022/07/25 08:24:47;;;;;;;13.37;2.50;;;;;;;23.27;63.33;100707.44;5286826;28;20079;-76
2022/07/25 08:27:18;;;;;;;4.50;2.27;;;;;;;23.57;62.97;100701.84;5286567;28;20044;-75
2022/07/25 08:29:50;;;;;;;7.80;2.13;;;;;;;23.77;63.76;100696.94;5287555;28;20070;-75
2022/07/25 08:32:21;;;;;;;5.40;2.17;;;;;;;23.68;62.16;100706.41;5286896;28;20495;-76
2022/07/25 08:34:53;;;;;;;5.93;2.17;;;;;;;23.38;63.07;100717.38;5286424;28;20482;-75
2022/07/25 08:37:24;;;;;;;5.10;1.98;;;;;;;23.46;63.41;100720.34;5286255;28;20056;-74
2022/07/25 08:39:56;;;;;;;8.33;1.80;;;;;;;23.76;62.13;100714.69;5286290;28;20052;-74
2022/07/25 08:42:28;;;;;;;5.80;2.07;;;;;;;24.12;61.31;100713.13;5286260;28;20071;-75
2022/07/25 08:45:04;;;;;;;4.82;1.85;;;;;;;24.29;59.59;100735.88;5286037;28;20513;-75
2022/07/25 08:47:36;;;;;;;7.35;2.20;;;;;;;24.64;59.23;100713.03;5285941;28;20169;-74
2022/07/25 08:50:12;;;;;;;8.35;2.65;;;;;;;24.75;59.14;100711.25;5285821;28;20052;-74
2022/07/25 08:52:46;;;;;;;9.50;2.78;;;;;;;25.07;58.24;100704.50;5285704;28;20379;-74
2022/07/25 08:55:21;;;;;;;6.05;2.28;;;;;;;25.14;58.33;100711.06;5285765;28;20024;-73
2022/07/25 08:57:53;;;;;;;10.10;2.33;;;;;;;24.71;58.46;100714.28;5286009;28;20028;-74
2022/07/25 09:00:27;;;;;;;6.68;2.33;;;;;;;24.50;59.07;100720.16;5285678;28;20108;-76
2022/07/25 09:03:01;;;;;;;5.13;2.30;;;;;;;24.33;60.03;100716.06;5268082;28;20434;-74
2022/07/25 09:05:34;;;;;;;9.70;2.13;;;;;;;24.53;60.07;100719.94;5285277;28;20025;-74
2022/07/25 09:08:11;;;;;;;5.85;2.17;;;;;;;24.53;61.07;100722.59;5285201;28;20064;-74
2022/07/25 09:10:48;;;;;;;6.20;2.35;;;;;;;24.21;60.44;100717.81;5267032;28;20032;-73
2022/07/25 09:13:22;;;;;;;6.47;2.83;;;;;;;24.54;60.68;100718.16;5285393;28;20044;-73
2022/07/25 09:15:59;;;;;;;7.18;2.80;;;;;;;24.37;60.13;100728.19;5285825;28;20492;-75
2022/07/25 09:18:32;;;;;;;5.82;2.60;;;;;;;24.74;60.17;100725.53;5285639;28;20078;-73
2022/07/25 09:21:04;;;;;;;8.93;2.65;;;;;;;25.04;59.47;100723.41;5285634;28;20324;-74
2022/07/25 09:23:37;;;;;;;6.85;2.20;;;;;;;25.59;58.17;100721.91;5286880;28;20040;-74
2022/07/25 09:26:09;;;;;;;11.38;2.78;;;;;;;25.47;57.91;100725.50;5284895;28;20045;-75
2022/07/25 09:28:41;;;;;;;;;;;;;;;25.75;56.54;100724.22;5285279;28;20456;-73
2022/07/25 09:31:14;;;;;;;8.27;2.38;;;;;;;25.61;55.95;100735.13;5285393;28;19974;-75
2022/07/25 09:33:53;;;;;;;7.50;2.97;;;;;;;25.87;55.54;100738.44;5285434;28;20132;-73
2022/07/25 09:36:24;;;;;;;5.50;2.08;;;;;;;26.18;54.57;100744.09;5284835;28;20032;-74
2022/07/25 09:39:01;;;;;;;5.53;2.35;;;;;;;25.29;53.15;100759.78;5284864;28;20028;-75
2022/07/25 09:41:38;;;;;;;6.60;2.65;;;;;;;24.93;53.61;100762.38;5284729;28;20052;-75
2022/07/25 09:44:16;;;;;;;8.05;2.65;;;;;;;24.84;54.99;100763.06;5284438;28;20032;-73
2022/07/25 09:46:48;;;;;;;9.02;2.67;;;;;;;25.07;55.55;100761.38;5285056;28;20486;-74
2022/07/25 09:49:19;;;;;;;8.15;2.45;;;;;;;25.17;55.17;100758.84;5266823;28;20036;-74
2022/07/25 09:51:51;;;;;;;7.07;2.57;;;;;;;25.83;56.87;100756.53;5284947;28;20129;-74
2022/07/25 09:54:23;;;;;;;6.38;2.72;;;;;;;25.68;53.75;100749.72;5284891;28;20758;-76
2022/07/25 09:56:54;;;;;;;8.27;2.73;;;;;;;25.85;56.06;100759.06;5284358;28;20246;-74
2022/07/25 09:59:26;;;;;;;8.32;2.67;;;;;;;25.91;52.94;100765.78;5286923;28;20032;-75
2022/07/25 10:02:19;;;;;;;7.43;2.40;;;;;;;26.90;50.79;100766.81;5284680;28;20037;-74
2022/07/25 10:05:07;;;;;;;7.00;2.88;;;;;;;28.20;47.75;100762.16;5285149;28;20658;-75
2022/07/25 10:07:41;;;;;;;8.45;2.90;;;;;;;29.39;44.55;100764.94;5284505;28;20479;-74
2022/07/25 10:10:37;;;;;;;7.15;2.65;;;;;;;29.71;42.94;100767.28;5266319;28;20036;-75
2022/07/25 10:13:15;;;;;;;5.22;2.30;;;;;;;29.55;44.64;100767.03;5284374;28;20036;-74
2022/07/25 10:15:51;;;;;;;11.52;3.65;;;;;;;29.11;42.60;100764.78;5284821;28;20036;-75
2022/07/25 10:18:26;;;;;;;8.23;2.97;;;;;;;28.72;44.32;100770.09;5284726;28;20029;-74
2022/07/25 10:21:10;;;;;;;6.72;2.72;;;;;;;29.99;41.83;100772.75;5284284;28;20064;-74
2022/07/25 10:23:41;;;;;;;6.30;2.70;;;;;;;30.43;41.31;100759.59;5284916;28;20033;-72
2022/07/25 10:26:15;;;;;;;6.93;2.28;;;;;;;31.44;38.63;100766.63;5284545;28;20078;-73
2022/07/25 10:28:50;;;;;;;6.70;3.35;;;;;;;31.01;37.67;100769.16;5284166;28;20081;-74
2022/07/25 10:31:27;;;;;;;5.38;2.67;;;;;;;30.30;38.94;100769.78;5284531;28;20041;-76
2022/07/25 10:34:03;;;;;;;5.30;2.28;;;;;;;30.06;39.02;100760.44;5284818;28;20036;-73
2022/07/25 10:36:54;;;;;;;4.65;2.40;;;;;;;30.15;39.63;100762.22;5283365;28;20525;-77
2022/07/25 10:39:37;;;;;;;7.35;2.40;;;;;;;29.91;38.93;100776.16;5284160;28;20032;-76
2022/07/25 10:42:12;;;;;;;6.43;2.55;;;;;;;28.66;40.75;100773.31;5284275;28;20036;-75
2022/07/25 10:44:47;;;;;;;6.10;2.35;;;;;;;28.78;40.88;100782.13;5283611;28;20507;-75
2022/07/25 10:47:22;;;;;;;6.47;2.65;;;;;;;29.16;40.07;100770.56;5283763;28;20111;-75
2022/07/25 10:50:00;;;;;;;6.35;2.78;;;;;;;28.18;42.31;100775.69;5284170;28;20032;-76
2022/07/25 10:52:31;;;;;;;5.93;2.40;;;;;;;28.12;44.42;100767.34;5283383;28;20040;-75
2022/07/25 10:55:03;;;;;;;5.28;2.47;;;;;;;28.36;42.70;100775.88;5282981;28;20313;-76
2022/07/25 10:57:34;;;;;;;;;;;;;;;30.14;38.50;100784.72;5284081;28;20024;-76
2022/07/25 11:00:07;;;;;;;7.47;2.67;;;;;;;30.66;38.07;100784.22;5283261;28;19912;-76
2022/07/25 11:02:40;;;;;;;7.25;3.17;;;;;;;31.69;36.04;100794.66;5283802;28;20028;-74
2022/07/25 11:05:11;;;;;;;5.75;2.80;;;;;;;30.60;37.43;100789.38;5283305;28;20356;-76
2022/07/25 11:07:52;;;;;;;8.27;2.83;;;;;;;29.84;38.59;100788.50;5283380;28;20069;-76
2022/07/25 11:10:25;;;;;;;6.30;2.42;;;;;;;29.26;39.76;100782.19;5283700;28;20123;-74
2022/07/25 11:12:57;;;;;;;8.80;3.45;;;;;;;28.21;41.69;100809.41;5284088;28;20451;-74
2022/07/25 11:15:28;;;;;;;7.82;3.20;;;;;;;27.35;44.52;100785.41;5283842;28;20128;-75
2022/07/25 11:17:59;;;;;;;;;;;;;;;27.63;43.25;100794.66;5265678;28;20172;-74
2022/07/25 11:20:31;;;;;;;8.20;3.17;;;;;;;27.22;43.95;100792.75;5283504;28;20359;-74
2022/07/25 11:23:02;;;;;;;;;;;;;;;27.65;42.96;100797.22;5265797;28;20124;-75
2022/07/25 11:25:33;;;;;;;5.37;3.30;;;;;;;27.89;42.62;100796.94;5283942;28;20240;-73
2022/07/25 11:28:05;;;;;;;;;;;;;;;27.94;43.21;100808.13;5285887;28;20286;-75
2022/07/25 11:30:36;;;;;;;8.05;3.80;;;;;;;26.84;45.17;100810.13;5283974;28;19916;-74
2022/07/25 11:33:08;;;;;;;6.35;3.35;;;;;;;26.47;46.44;100805.03;5264733;28;20032;-75
2022/07/25 11:35:39;;;;;;;;;;;;;;;26.82;45.52;100812.91;5283263;28;20302;-74
2022/07/25 11:38:12;;;;;;;7.95;3.30;;;;;;;26.49;47.48;100817.31;5282539;28;20022;-73
2022/07/25 11:40:45;;;;;;;9.07;3.50;;;;;;;26.19;47.43;100829.47;5282473;28;20496;-74
2022/07/25 11:43:21;;;;;;;7.22;3.70;;;;;;;26.45;47.12;100821.19;5264582;28;20460;-75
2022/07/25 11:45:58;;;;;;;7.68;3.40;;;;;;;26.30;48.00;100817.06;5282226;28;20063;-74
2022/07/25 11:48:39;;;;;;;6.72;3.35;;;;;;;26.63;47.37;100828.72;5281916;28;20455;-73
2022/07/25 11:51:18;;;;;;;6.95;3.45;;;;;;;26.77;46.47;100828.50;5282817;28;20572;-74
2022/07/25 11:53:50;;;;;;;7.95;3.30;;;;;;;26.99;45.29;100835.63;5282244;28;20036;-76